Time;durP1;ratioP1;P1;durP2;ratioP2;P2;SDS_P1;SDS_P2;PMS_P1;PMS_P2;Temp;Humidity;BMP_temperature;BMP_pressure;BME280_temperature;BME280_humidity;BME280_pressure;Samples;Min_cycle;Max_cycle;Signal;HPM_P1;HPM_P2
2022/01/10 00:04:09;;;;;;;15.77;2.90;;;;;;;4.35;100.00;100797.66;10367604;28;20057;-63
2022/01/10 00:09:31;;;;;;;13.82;2.83;;;;;;;4.42;100.00;100799.94;10406109;28;20743;-63
2022/01/10 00:14:52;;;;;;;12.18;2.85;;;;;;;4.38;100.00;100810.41;10367104;28;20391;-64
2022/01/10 00:20:17;;;;;;;11.40;2.80;;;;;;;4.32;100.00;100810.69;10366868;28;20050;-63
2022/01/10 00:25:39;;;;;;;22.67;3.55;;;;;;;4.35;100.00;100818.31;10366591;28;20069;-64
2022/01/10 00:31:00;;;;;;;17.55;3.45;;;;;;;4.31;100.00;100825.31;10383349;28;20042;-63
2022/01/10 00:36:22;;;;;;;15.05;2.88;;;;;;;4.23;100.00;100831.66;10383887;28;20084;-63
2022/01/10 00:41:45;;;;;;;17.88;3.55;;;;;;;4.29;100.00;100836.59;10380521;28;20038;-64
2022/01/10 00:47:06;;;;;;;15.80;3.50;;;;;;;4.35;100.00;100857.84;10386975;28;20053;-64
2022/01/10 00:52:28;;;;;;;13.30;2.97;;;;;;;4.27;100.00;100869.34;10394049;28;20053;-63
2022/01/10 00:57:50;;;;;;;17.63;3.00;;;;;;;4.15;100.00;100875.81;10391166;28;20057;-64
2022/01/10 01:03:11;;;;;;;18.33;3.30;;;;;;;4.21;100.00;100890.22;10386018;28;20082;-64
2022/01/10 01:08:35;;;;;;;24.58;3.80;;;;;;;4.05;100.00;100904.59;10389412;28;20053;-64
2022/01/10 01:14:00;;;;;;;16.17;3.80;;;;;;;4.19;100.00;100925.56;10389965;28;20049;-64
2022/01/10 01:24:43;;;;;;;20.92;4.20;;;;;;;4.15;100.00;100944.63;10409540;28;20599;-64
2022/01/10 01:30:07;;;;;;;21.20;3.63;;;;;;;4.18;100.00;100962.56;10419957;28;20053;-64
2022/01/10 01:35:29;;;;;;;24.15;4.00;;;;;;;4.05;100.00;100963.91;10419677;28;20057;-64
2022/01/10 01:40:58;;;;;;;19.85;3.95;;;;;;;4.12;100.00;100976.53;10403823;28;20494;-64
2022/01/10 01:46:21;;;;;;;20.13;3.63;;;;;;;3.99;100.00;100987.31;10391155;28;20052;-64
2022/01/10 01:51:43;;;;;;;21.50;4.07;;;;;;;3.98;100.00;100994.22;10403119;28;20056;-65
2022/01/10 01:57:07;;;;;;;24.38;3.92;;;;;;;4.03;100.00;101004.38;10415835;28;20413;-64
2022/01/10 02:02:29;;;;;;;17.33;4.05;;;;;;;3.97;100.00;101010.59;10408974;28;20046;-62
2022/01/10 02:07:51;;;;;;;17.52;4.40;;;;;;;3.76;100.00;101025.97;10388949;28;20618;-64
2022/01/10 02:13:12;;;;;;;11.88;3.70;;;;;;;3.80;100.00;101028.38;10391407;28;20045;-64
2022/01/10 02:18:35;;;;;;;20.48;4.15;;;;;;;3.88;100.00;101025.53;10409643;28;20406;-64
2022/01/10 02:23:58;;;;;;;28.02;4.40;;;;;;;3.78;100.00;101044.81;10409277;28;20708;-64
2022/01/10 02:29:20;;;;;;;20.10;3.90;;;;;;;3.75;100.00;101049.19;10403935;28;20518;-64
2022/01/10 02:34:41;;;;;;;32.00;4.57;;;;;;;3.68;100.00;101064.03;10395442;28;20533;-64
2022/01/10 02:40:07;;;;;;;18.25;4.25;;;;;;;3.54;100.00;101073.09;10369208;28;20046;-64
2022/01/10 02:45:28;;;;;;;15.25;4.13;;;;;;;3.45;100.00;101084.53;10391354;28;20060;-63
2022/01/10 02:50:50;;;;;;;29.98;5.18;;;;;;;3.43;100.00;101088.03;10405923;28;20698;-64
2022/01/10 02:56:12;;;;;;;21.08;4.72;;;;;;;3.45;100.00;101109.44;10408843;28;20059;-64
2022/01/10 03:01:34;;;;;;;19.55;4.18;;;;;;;3.35;100.00;101110.63;10368410;28;20116;-64
2022/01/10 03:06:56;;;;;;;16.27;4.32;;;;;;;3.34;100.00;101122.69;10383791;28;20146;-64
2022/01/10 03:12:18;;;;;;;24.08;4.43;;;;;;;3.32;100.00;101132.19;10414368;28;20060;-64
2022/01/10 03:17:39;;;;;;;21.70;4.82;;;;;;;3.31;100.00;101142.53;10412569;28;20532;-63
2022/01/10 03:23:01;;;;;;;17.35;4.88;;;;;;;3.25;100.00;101151.28;10374435;28;20654;-64
2022/01/10 03:28:23;;;;;;;11.98;4.13;;;;;;;3.31;100.00;101161.41;10392062;28;20054;-64
2022/01/10 03:33:44;;;;;;;20.85;4.88;;;;;;;3.44;100.00;101162.72;10373888;28;20045;-64
2022/01/10 03:39:06;;;;;;;32.95;4.78;;;;;;;3.30;100.00;101174.31;10374025;28;20520;-64
2022/01/10 03:44:28;;;;;;;17.63;4.40;;;;;;;3.34;100.00;101181.06;10405637;28;20045;-64
2022/01/10 03:49:50;;;;;;;22.33;4.50;;;;;;;3.21;100.00;101190.06;10401145;28;20049;-64
2022/01/10 03:55:11;;;;;;;21.90;4.43;;;;;;;3.16;100.00;101200.50;10410428;28;20402;-64
2022/01/10 04:00:33;;;;;;;18.30;5.53;;;;;;;3.08;100.00;101194.69;10402674;28;20394;-64
2022/01/10 04:05:57;;;;;;;19.88;4.95;;;;;;;3.19;100.00;101218.44;10413318;28;20413;-64
2022/01/10 04:11:18;;;;;;;23.90;5.22;;;;;;;3.17;100.00;101225.34;10412090;28;20045;-64
2022/01/10 04:16:40;;;;;;;33.85;5.85;;;;;;;3.17;100.00;101240.81;10404951;28;20512;-63
2022/01/10 04:22:03;;;;;;;20.42;5.38;;;;;;;3.16;100.00;101243.41;10397414;28;20045;-64
2022/01/10 04:27:25;;;;;;;15.23;5.50;;;;;;;3.27;100.00;101256.84;10395193;28;20046;-64
2022/01/10 04:32:47;;;;;;;23.58;5.72;;;;;;;3.32;100.00;101266.13;10371903;28;20390;-64
2022/01/10 04:38:10;;;;;;;19.52;5.38;;;;;;;3.25;100.00;101280.06;10386090;28;20046;-64
2022/01/10 04:43:31;;;;;;;17.48;5.07;;;;;;;3.12;100.00;101286.44;10370873;28;20057;-64
2022/01/10 04:48:55;;;;;;;22.35;5.43;;;;;;;3.13;100.00;101293.28;10388359;28;20057;-64
2022/01/10 04:54:18;;;;;;;20.10;5.15;;;;;;;3.25;100.00;101313.53;10407426;28;20498;-63
2022/01/10 04:59:39;;;;;;;29.45;5.38;;;;;;;3.08;100.00;101313.16;10411023;28;20502;-64
2022/01/10 05:05:03;;;;;;;17.58;5.80;;;;;;;3.24;100.00;101322.16;10377552;28;20057;-64
2022/01/10 05:10:24;;;;;;;21.98;5.72;;;;;;;3.17;100.00;101335.25;10377110;28;20046;-64
2022/01/10 05:15:47;;;;;;;23.48;5.68;;;;;;;3.30;100.00;101344.31;10369150;28;20053;-64
2022/01/10 05:21:10;;;;;;;15.52;5.47;;;;;;;3.24;100.00;101367.69;10410992;28;20482;-64
2022/01/10 05:26:31;;;;;;;20.05;6.07;;;;;;;3.20;100.00;101379.78;10407881;28;20057;-64
2022/01/10 05:31:53;;;;;;;19.70;5.90;;;;;;;3.34;100.00;101398.31;10403681;28;20081;-64
2022/01/10 05:37:15;;;;;;;19.10;5.95;;;;;;;3.16;100.00;101405.66;10402274;28;20050;-64
2022/01/10 05:42:36;;;;;;;24.30;5.97;;;;;;;3.25;100.00;101424.31;10355614;28;20049;-64
2022/01/10 05:48:07;;;;;;;17.50;5.85;;;;;;;3.25;100.00;101438.94;10375305;28;20508;-62
2022/01/10 05:53:28;;;;;;;18.20;5.93;;;;;;;3.16;100.00;101455.44;10408101;28;20050;-64
2022/01/10 05:58:50;;;;;;;27.08;5.72;;;;;;;3.21;100.00;101466.47;10409436;28;20057;-64
2022/01/10 06:04:12;;;;;;;17.30;6.07;;;;;;;3.29;100.00;101485.16;10409716;28;20042;-64
2022/01/10 06:09:34;;;;;;;18.52;5.82;;;;;;;3.16;100.00;101491.50;10408433;28;20054;-64
2022/01/10 06:14:55;;;;;;;21.13;6.78;;;;;;;3.18;100.00;101501.75;10409578;28;20136;-64
2022/01/10 06:20:17;;;;;;;23.65;6.75;;;;;;;3.11;100.00;101511.38;10409478;28;20417;-64
2022/01/10 06:25:40;;;;;;;20.02;6.00;;;;;;;3.06;100.00;101514.94;10408918;28;20046;-64
2022/01/10 06:31:02;;;;;;;19.63;6.22;;;;;;;3.09;100.00;101526.00;10406796;28;20060;-64
2022/01/10 06:36:24;;;;;;;20.38;6.20;;;;;;;3.07;100.00;101543.22;10395329;28;20144;-63
2022/01/10 06:41:45;;;;;;;26.52;7.15;;;;;;;3.06;100.00;101556.97;10397251;28;20046;-63
2022/01/10 06:47:07;;;;;;;20.90;7.28;;;;;;;3.00;100.00;101572.56;10415038;28;20059;-64
2022/01/10 06:52:28;;;;;;;20.45;7.35;;;;;;;3.00;100.00;101588.00;10418014;28;20764;-63
2022/01/10 06:57:50;;;;;;;23.60;7.13;;;;;;;2.93;100.00;101596.75;10394264;28;20049;-64
2022/01/10 07:03:12;;;;;;;25.20;6.93;;;;;;;2.95;100.00;101599.28;10396640;28;20526;-64
2022/01/10 07:08:33;;;;;;;20.77;7.07;;;;;;;2.85;100.00;101613.22;10415068;28;20092;-64
2022/01/10 07:14:00;;;;;;;29.48;8.15;;;;;;;2.77;100.00;101634.84;10415718;28;20045;-63
2022/01/10 07:19:22;;;;;;;24.85;8.18;;;;;;;2.84;100.00;101648.44;10383790;28;20056;-63
2022/01/10 07:24:44;;;;;;;23.65;7.50;;;;;;;2.86;100.00;101662.13;10385042;28;20045;-63
2022/01/10 07:30:06;;;;;;;19.60;7.10;;;;;;;2.91;100.00;101675.72;10413682;28;20049;-63
2022/01/10 07:35:28;;;;;;;19.48;7.70;;;;;;;2.82;100.00;101684.53;10415861;28;20120;-62
2022/01/10 07:40:50;;;;;;;26.70;8.38;;;;;;;2.68;100.00;101694.22;10402693;28;20047;-63
2022/01/10 07:46:12;;;;;;;31.45;9.23;;;;;;;2.79;100.00;101700.00;10414923;28;20498;-63
2022/01/10 07:51:34;;;;;;;22.83;8.85;;;;;;;2.66;100.00;101714.00;10394460;28;20049;-63
2022/01/10 07:56:56;;;;;;;31.00;9.52;;;;;;;2.68;100.00;101722.53;10390280;28;20061;-63
2022/01/10 08:02:20;;;;;;;28.38;9.73;;;;;;;2.72;100.00;101734.47;10387395;28;20113;-63
2022/01/10 08:07:42;;;;;;;22.67;9.32;;;;;;;2.70;100.00;101731.09;10393462;28;20125;-62
2022/01/10 08:13:04;;;;;;;29.25;9.38;;;;;;;2.57;100.00;101745.06;10373033;28;20050;-63
2022/01/10 08:18:26;;;;;;;25.60;9.40;;;;;;;2.62;100.00;101748.41;10406804;28;20057;-63
2022/01/10 08:23:47;;;;;;;23.40;9.90;;;;;;;2.69;100.00;101773.13;10413436;28;20056;-62
2022/01/10 08:29:09;;;;;;;23.77;9.30;;;;;;;2.70;100.00;101777.41;10394448;28;20057;-65
2022/01/10 08:34:31;;;;;;;26.48;9.77;;;;;;;2.68;100.00;101792.03;10374832;28;20042;-66
2022/01/10 08:39:52;;;;;;;23.58;9.45;;;;;;;2.59;100.00;101794.75;10397645;28;20065;-65
2022/01/10 08:45:14;;;;;;;28.50;10.52;;;;;;;2.71;100.00;101810.00;10385801;28;20612;-65
2022/01/10 08:50:36;;;;;;;24.83;10.25;;;;;;;2.70;100.00;101829.72;10390542;28;20042;-64
2022/01/10 08:55:58;;;;;;;34.78;10.65;;;;;;;2.69;100.00;101847.78;10390356;28;20707;-64
2022/01/10 09:01:21;;;;;;;29.13;9.82;;;;;;;2.72;100.00;101855.44;10393278;28;20396;-65
2022/01/10 09:06:45;;;;;;;28.80;10.15;;;;;;;2.63;100.00;101855.56;10386284;28;20064;-64
2022/01/10 09:12:07;;;;;;;28.63;11.27;;;;;;;2.67;100.00;101864.97;10387647;28;20507;-64
2022/01/10 09:17:28;;;;;;;28.13;11.55;;;;;;;2.80;100.00;101882.75;10378902;28;20068;-66
2022/01/10 09:22:50;;;;;;;29.55;10.98;;;;;;;2.81;100.00;101904.19;10355981;28;20041;-65
2022/01/10 09:28:12;;;;;;;32.40;11.23;;;;;;;3.01;100.00;101916.72;10399202;28;20063;-64
2022/01/10 09:33:33;;;;;;;27.85;10.68;;;;;;;3.01;100.00;101932.19;10384362;28;20049;-64
2022/01/10 09:38:57;;;;;;;25.10;11.45;;;;;;;3.06;100.00;101937.25;10403403;28;20053;-64
2022/01/10 09:44:19;;;;;;;23.63;11.23;;;;;;;3.12;100.00;101938.00;10401774;28;20133;-65
2022/01/10 09:49:42;;;;;;;24.63;11.15;;;;;;;3.12;100.00;101943.16;10375305;28;20053;-64
2022/01/10 09:55:04;;;;;;;28.65;11.30;;;;;;;3.30;100.00;101947.13;10378905;28;20071;-64
2022/01/10 10:00:27;;;;;;;29.50;11.50;;;;;;;3.41;100.00;101958.97;10389271;28;20049;-64
2022/01/10 10:05:52;;;;;;;28.35;11.30;;;;;;;3.48;100.00;101963.16;10379200;28;20057;-65
2022/01/10 10:11:14;;;;;;;26.53;12.07;;;;;;;3.48;100.00;101973.47;10406820;28;20046;-64
2022/01/10 10:16:37;;;;;;;30.05;12.10;;;;;;;3.65;100.00;101992.03;10382150;28;20287;-64
2022/01/10 10:21:59;;;;;;;26.35;12.38;;;;;;;3.75;100.00;102006.47;10393610;28;20050;-64
2022/01/10 10:27:25;;;;;;;31.50;11.88;;;;;;;3.72;100.00;102013.38;10398329;28;20050;-65
2022/01/10 10:33:12;;;;;;;28.08;12.13;;;;;;;3.78;100.00;102018.44;10396270;28;20045;-64
2022/01/10 10:38:34;;;;;;;34.03;12.05;;;;;;;3.81;100.00;102024.41;10390994;28;20145;-65
2022/01/10 10:43:56;;;;;;;33.92;13.25;;;;;;;3.89;100.00;102030.28;10398301;28;20049;-65
2022/01/10 10:49:20;;;;;;;28.55;12.10;;;;;;;3.95;100.00;102032.72;10400489;28;20085;-64
2022/01/10 10:54:42;;;;;;;37.53;13.73;;;;;;;4.01;100.00;102032.63;10414779;28;20042;-64
2022/01/10 11:00:11;;;;;;;35.38;11.70;;;;;;;4.13;100.00;102033.25;10392298;28;20062;-65
2022/01/10 11:05:33;;;;;;;31.95;12.05;;;;;;;4.20;100.00;102044.31;10413210;28;20156;-64
2022/01/10 11:10:55;;;;;;;25.58;11.23;;;;;;;4.33;100.00;102050.94;10380282;28;20069;-65
2022/01/10 11:16:17;;;;;;;32.40;12.00;;;;;;;4.40;100.00;102058.53;10397451;28;20409;-64
2022/01/10 11:21:41;;;;;;;29.90;11.60;;;;;;;4.48;100.00;102061.78;10361223;28;20052;-65
2022/01/10 11:27:08;;;;;;;30.45;11.77;;;;;;;4.64;100.00;102070.09;10378383;28;20474;-64
2022/01/10 11:32:51;;;;;;;26.35;10.98;;;;;;;4.73;100.00;102076.75;10379532;28;20050;-65
2022/01/10 11:38:38;;;;;;;26.58;10.15;;;;;;;4.82;100.00;102084.28;10405263;28;20482;-65
2022/01/10 11:44:04;;;;;;;30.67;11.02;;;;;;;4.89;100.00;102085.88;10387913;28;20053;-65
2022/01/10 11:49:26;;;;;;;36.10;11.93;;;;;;;5.04;100.00;102095.88;10392591;28;20401;-64
2022/01/10 11:54:47;;;;;;;26.88;10.15;;;;;;;5.07;100.00;102092.38;10401667;28;20046;-65
2022/01/10 12:00:11;;;;;;;29.40;10.90;;;;;;;5.14;100.00;102099.97;10404596;28;20060;-65
2022/01/10 12:05:32;;;;;;;27.85;10.30;;;;;;;5.25;100.00;102116.06;10392492;28;20045;-65
2022/01/10 12:10:56;;;;;;;30.85;10.45;;;;;;;5.36;100.00;102116.69;10389816;28;20076;-65
2022/01/10 12:16:17;;;;;;;30.20;10.60;;;;;;;5.41;100.00;102120.00;10389705;28;20072;-65
2022/01/10 12:21:39;;;;;;;30.58;10.07;;;;;;;5.47;100.00;102114.72;10395055;28;20046;-65
2022/01/10 12:27:07;;;;;;;27.00;10.48;;;;;;;5.51;100.00;102137.03;10412679;28;20064;-65
2022/01/10 12:32:33;;;;;;;29.38;10.18;;;;;;;5.62;100.00;102132.47;10410532;28;20041;-65
2022/01/10 12:37:55;;;;;;;27.30;9.95;;;;;;;5.63;100.00;102149.69;10411370;28;20060;-66
2022/01/10 12:43:17;;;;;;;24.75;10.05;;;;;;;5.65;100.00;102149.63;10392159;28;20041;-65
2022/01/10 12:48:40;;;;;;;26.10;9.20;;;;;;;5.73;100.00;102158.91;10390889;28;20091;-65
2022/01/10 12:54:04;;;;;;;31.70;9.13;;;;;;;5.81;100.00;102172.56;10401132;28;20060;-64
2022/01/10 12:59:28;;;;;;;26.55;8.43;;;;;;;5.90;100.00;102180.94;10389731;28;20050;-65
2022/01/10 13:04:50;;;;;;;23.83;8.27;;;;;;;5.95;100.00;102189.44;10382453;28;20061;-65
2022/01/10 13:10:20;;;;;;;22.45;8.82;;;;;;;5.94;100.00;102192.09;10408412;28;20050;-65
2022/01/10 13:15:45;;;;;;;24.05;8.38;;;;;;;6.01;99.69;102198.78;10398334;28;20050;-65
2022/01/10 13:21:07;;;;;;;22.13;7.63;;;;;;;6.07;98.53;102209.00;10397719;28;20069;-65
2022/01/10 13:26:28;;;;;;;22.30;8.02;;;;;;;6.07;98.92;102225.38;10400002;28;20057;-63
2022/01/10 13:31:50;;;;;;;25.05;8.50;;;;;;;6.08;98.87;102226.25;10390961;28;20056;-64
2022/01/10 13:37:13;;;;;;;23.77;8.50;;;;;;;6.04;99.21;102229.78;10381484;28;20060;-64
2022/01/10 13:42:50;;;;;;;31.85;9.10;;;;;;;6.06;99.91;102243.53;10389626;28;20045;-64
2022/01/10 13:48:31;;;;;;;22.80;8.50;;;;;;;6.14;98.64;102249.38;10392271;28;20057;-64
2022/01/10 13:53:54;;;;;;;29.75;8.93;;;;;;;6.08;98.90;102257.31;10405317;28;20513;-64
2022/01/10 13:59:17;;;;;;;24.63;7.95;;;;;;;6.17;98.22;102277.78;10407628;28;20112;-65
2022/01/10 14:04:39;;;;;;;26.58;8.45;;;;;;;6.15;98.42;102284.72;10390422;28;20044;-65
2022/01/10 14:10:01;;;;;;;27.80;8.95;;;;;;;6.16;98.16;102296.78;10407096;28;20143;-65
2022/01/10 14:15:28;;;;;;;22.83;8.35;;;;;;;6.10;98.94;102312.47;10395391;28;20501;-64
2022/01/10 14:20:50;;;;;;;22.67;8.13;;;;;;;6.12;98.23;102331.41;10388387;28;20505;-64
2022/01/10 14:26:12;;;;;;;25.55;8.20;;;;;;;6.11;99.27;102335.72;10370636;28;20042;-65
2022/01/10 14:31:34;;;;;;;31.50;9.43;;;;;;;6.15;99.09;102331.31;10393250;28;20068;-64
2022/01/10 14:36:56;;;;;;;24.80;8.38;;;;;;;6.15;97.59;102341.69;10409326;28;20061;-64
2022/01/10 14:42:17;;;;;;;29.58;8.68;;;;;;;6.11;98.09;102358.19;10375791;28;20046;-65
2022/01/10 14:47:40;;;;;;;28.42;8.85;;;;;;;6.10;98.44;102369.44;10391287;28;20054;-64
2022/01/10 14:53:05;;;;;;;24.48;8.52;;;;;;;5.96;100.00;102376.63;10403245;28;20068;-64
2022/01/10 14:58:28;;;;;;;26.02;9.63;;;;;;;5.89;99.62;102377.63;10407127;28;20049;-65
2022/01/10 15:03:49;;;;;;;32.97;9.82;;;;;;;5.80;100.00;102385.59;10408810;28;20091;-65
2022/01/10 15:09:16;;;;;;;26.10;8.70;;;;;;;5.41;100.00;102386.31;10389594;28;20533;-65
2022/01/10 15:14:38;;;;;;;26.08;10.15;;;;;;;5.27;100.00;102403.81;10394480;28;20034;-65
2022/01/10 15:20:00;;;;;;;25.42;8.75;;;;;;;5.10;100.00;102405.84;10382458;28;20049;-65
2022/01/10 15:25:21;;;;;;;30.17;10.02;;;;;;;5.11;100.00;102422.22;10395414;28;20046;-65
2022/01/10 15:30:43;;;;;;;25.55;10.32;;;;;;;5.05;100.00;102433.50;10384396;28;20499;-64
2022/01/10 15:36:06;;;;;;;25.33;9.18;;;;;;;4.92;100.00;102437.16;10392109;28;20422;-66
2022/01/10 15:41:27;;;;;;;23.83;10.07;;;;;;;4.87;100.00;102446.72;10397787;28;20049;-65
2022/01/10 15:46:51;;;;;;;22.63;9.93;;;;;;;4.77;100.00;102449.44;10408620;28;20045;-65
2022/01/10 15:52:17;;;;;;;28.10;8.90;;;;;;;4.79;100.00;102458.91;10405553;28;20041;-65
2022/01/10 15:57:40;;;;;;;25.98;9.75;;;;;;;4.43;100.00;102470.59;10394516;28;20054;-64
2022/01/10 16:03:01;;;;;;;20.17;9.27;;;;;;;4.44;100.00;102472.31;10385851;28;20100;-64
2022/01/10 16:08:23;;;;;;;21.95;9.90;;;;;;;4.19;100.00;102476.94;10387320;28;20057;-64
2022/01/10 16:13:51;;;;;;;23.73;9.98;;;;;;;4.20;100.00;102485.53;10395327;28;20057;-64
2022/01/10 16:19:14;;;;;;;30.48;10.52;;;;;;;4.31;100.00;102486.25;10387110;28;20050;-65
2022/01/10 16:24:38;;;;;;;23.80;10.85;;;;;;;4.07;100.00;102502.03;10389028;28;20387;-65
2022/01/10 16:29:59;;;;;;;35.78;10.98;;;;;;;3.98;100.00;102507.28;10392273;28;20064;-64
2022/01/10 16:35:22;;;;;;;30.15;11.05;;;;;;;3.81;100.00;102529.81;10393501;28;20045;-65
2022/01/10 16:40:45;;;;;;;25.95;10.18;;;;;;;3.68;100.00;102543.69;10390866;28;20575;-65
2022/01/10 16:46:07;;;;;;;22.38;10.32;;;;;;;3.58;100.00;102551.53;10392984;28;20052;-64
2022/01/10 16:51:30;;;;;;;21.42;10.18;;;;;;;3.49;100.00;102564.50;10402273;28;20138;-64
2022/01/10 16:56:52;;;;;;;30.08;10.73;;;;;;;3.48;100.00;102571.38;10394191;28;20056;-63
2022/01/10 17:02:14;;;;;;;22.23;10.57;;;;;;;3.42;100.00;102586.88;10384592;28;20056;-64
2022/01/10 17:07:39;;;;;;;33.85;11.30;;;;;;;3.46;100.00;102598.91;10396771;28;20073;-64
2022/01/10 17:13:01;;;;;;;32.72;13.35;;;;;;;3.50;100.00;102600.56;10372965;28;20060;-64
2022/01/10 17:18:23;;;;;;;32.90;14.43;;;;;;;3.30;100.00;102612.75;10398265;28;20053;-64
2022/01/10 17:23:44;;;;;;;35.40;14.68;;;;;;;3.18;100.00;102623.13;10390487;28;20140;-64
2022/01/10 17:29:08;;;;;;;33.45;14.52;;;;;;;3.18;100.00;102633.44;10378272;28;20052;-64
2022/01/10 17:34:29;;;;;;;31.02;14.32;;;;;;;3.19;100.00;102642.88;10388893;28;20045;-64
2022/01/10 17:39:53;;;;;;;31.40;15.10;;;;;;;3.31;100.00;102645.38;10376405;28;20050;-63
2022/01/10 17:45:17;;;;;;;32.22;15.30;;;;;;;3.26;100.00;102660.00;10391089;28;20045;-64
2022/01/10 17:50:48;;;;;;;31.98;16.58;;;;;;;3.45;100.00;102659.03;10392868;28;20046;-63
2022/01/10 17:56:11;;;;;;;45.05;18.38;;;;;;;3.55;100.00;102675.31;10384618;28;20382;-64
2022/01/10 18:01:34;;;;;;;40.38;19.52;;;;;;;3.64;100.00;102676.06;10408538;28;20109;-64
2022/01/10 18:06:56;;;;;;;39.60;21.15;;;;;;;3.67;100.00;102678.63;10410729;28;20081;-64
2022/01/10 18:12:18;;;;;;;41.70;20.40;;;;;;;3.77;100.00;102685.47;10397384;28;20073;-64
2022/01/10 18:17:40;;;;;;;46.00;19.80;;;;;;;3.78;100.00;102684.59;10390911;28;20049;-64
2022/01/10 18:23:03;;;;;;;44.47;19.55;;;;;;;3.84;100.00;102695.72;10404937;28;20045;-64
2022/01/10 18:28:24;;;;;;;42.85;19.00;;;;;;;3.93;100.00;102710.25;10401412;28;20433;-64
2022/01/10 18:33:48;;;;;;;34.75;17.23;;;;;;;3.96;100.00;102699.91;10399233;28;20050;-65
2022/01/10 18:39:12;;;;;;;38.53;18.40;;;;;;;3.86;100.00;102708.59;10400744;28;20057;-64
2022/01/10 18:44:34;;;;;;;30.90;17.33;;;;;;;3.61;100.00;102707.06;10414748;28;20404;-64
2022/01/10 18:49:56;;;;;;;31.58;17.88;;;;;;;3.68;100.00;102719.03;10393605;28;20061;-64
2022/01/10 18:55:19;;;;;;;42.30;17.92;;;;;;;3.80;100.00;102729.25;10391859;28;20045;-65
2022/01/10 19:00:41;;;;;;;43.25;16.95;;;;;;;3.57;100.00;102730.25;10410330;28;20049;-65
2022/01/10 19:06:03;;;;;;;40.50;18.45;;;;;;;3.59;100.00;102747.47;10388225;28;20441;-65
2022/01/10 19:11:25;;;;;;;37.28;19.40;;;;;;;3.48;100.00;102741.50;10386638;28;20073;-65
2022/01/10 19:16:48;;;;;;;45.40;19.42;;;;;;;3.46;100.00;102750.97;10382719;28;20045;-65
2022/01/10 19:22:09;;;;;;;36.53;18.40;;;;;;;3.64;100.00;102757.75;10392853;28;20053;-65
2022/01/10 19:27:31;;;;;;;37.22;19.98;;;;;;;3.75;100.00;102767.13;10395433;28;20056;-65
2022/01/10 19:32:53;;;;;;;39.70;19.63;;;;;;;3.73;100.00;102761.13;10373812;28;20049;-64
2022/01/10 19:38:14;;;;;;;37.13;19.33;;;;;;;3.61;100.00;102774.09;10389433;28;20053;-64
2022/01/10 19:43:36;;;;;;;42.17;18.40;;;;;;;3.37;100.00;102776.75;10406480;28;20081;-64
2022/01/10 19:48:58;;;;;;;35.58;18.63;;;;;;;3.38;100.00;102781.06;10385418;28;20072;-64
2022/01/10 19:54:19;;;;;;;34.88;18.23;;;;;;;3.37;100.00;102789.66;10393701;28;20071;-65
2022/01/10 19:59:41;;;;;;;41.75;20.33;;;;;;;3.30;100.00;102799.97;10399919;28;20060;-65
2022/01/10 20:05:03;;;;;;;33.70;18.75;;;;;;;3.19;100.00;102797.47;10398035;28;20045;-64
2022/01/10 20:10:29;;;;;;;40.38;21.35;;;;;;;3.07;100.00;102800.06;10369013;28;20057;-64
2022/01/10 20:15:51;;;;;;;39.67;20.73;;;;;;;3.06;100.00;102811.22;10391197;28;20041;-64
2022/01/10 20:21:13;;;;;;;46.85;21.77;;;;;;;3.02;100.00;102819.84;10440717;28;20406;-66
2022/01/10 20:26:35;;;;;;;39.22;20.75;;;;;;;2.89;100.00;102823.28;10414724;28;20042;-64
2022/01/10 20:31:57;;;;;;;41.15;20.08;;;;;;;2.77;100.00;102825.00;10413214;28;20072;-64
2022/01/10 20:37:19;;;;;;;40.78;19.08;;;;;;;2.71;100.00;102834.47;10407896;28;20064;-64
2022/01/10 20:42:41;;;;;;;37.97;18.13;;;;;;;2.65;100.00;102834.44;10406815;28;20051;-64
2022/01/10 20:48:03;;;;;;;37.35;17.58;;;;;;;2.60;100.00;102842.19;10406140;28;20060;-65
2022/01/10 20:53:27;;;;;;;32.45;18.15;;;;;;;2.62;100.00;102844.78;10404293;28;20068;-65
2022/01/10 20:58:49;;;;;;;36.38;17.75;;;;;;;2.62;100.00;102852.50;10402779;28;20052;-65
2022/01/10 21:04:11;;;;;;;32.97;18.58;;;;;;;2.53;100.00;102866.22;10387199;28;20521;-64
2022/01/10 21:09:33;;;;;;;39.33;18.80;;;;;;;2.66;100.00;102861.91;10400479;28;20053;-66
2022/01/10 21:14:55;;;;;;;46.55;20.52;;;;;;;2.69;100.00;102856.75;10401161;28;20049;-65
2022/01/10 21:20:16;;;;;;;32.53;17.15;;;;;;;2.43;100.00;102858.47;10390175;28;20422;-64
2022/01/10 21:25:39;;;;;;;35.72;17.45;;;;;;;2.42;100.00;102857.59;10400482;28;20061;-65
2022/01/10 21:31:00;;;;;;;39.70;18.55;;;;;;;2.30;100.00;102867.03;10402285;28;20053;-65
2022/01/10 21:36:22;;;;;;;37.15;18.23;;;;;;;2.31;100.00;102868.75;10387361;28;20107;-64
2022/01/10 21:41:44;;;;;;;42.17;18.40;;;;;;;2.25;100.00;102868.72;10385568;28;20061;-64
2022/01/10 21:47:06;;;;;;;37.00;18.17;;;;;;;2.16;100.00;102868.72;10391702;28;20042;-65
2022/01/10 21:52:27;;;;;;;38.08;18.27;;;;;;;2.14;100.00;102880.72;10389084;28;20403;-64
2022/01/10 21:57:50;;;;;;;39.35;18.52;;;;;;;2.05;100.00;102885.81;10386122;28;20072;-64
2022/01/10 22:03:12;;;;;;;32.75;17.92;;;;;;;2.03;100.00;102887.56;10384980;28;20679;-64
2022/01/10 22:08:34;;;;;;;38.55;19.10;;;;;;;2.05;100.00;102896.97;10378114;28;20454;-65
2022/01/10 22:13:56;;;;;;;38.55;20.10;;;;;;;2.06;100.00;102902.97;10388743;28;20045;-65
2022/01/10 22:19:18;;;;;;;38.78;18.83;;;;;;;1.94;100.00;102910.66;10389693;28;20493;-65
2022/01/10 22:24:41;;;;;;;41.05;20.33;;;;;;;1.95;100.00;102909.81;10382975;28;20042;-64
2022/01/10 22:30:07;;;;;;;38.97;20.00;;;;;;;1.84;100.00;102898.63;10396943;28;20216;-64
2022/01/10 22:35:29;;;;;;;37.47;19.58;;;;;;;2.00;100.00;102900.41;10411799;28;20037;-65
2022/01/10 22:40:52;;;;;;;33.45;19.20;;;;;;;1.77;100.00;102901.16;10416045;28;20060;-65
2022/01/10 22:46:14;;;;;;;44.17;20.08;;;;;;;1.84;100.00;102906.34;10416022;28;20057;-65
2022/01/10 22:51:35;;;;;;;34.63;19.77;;;;;;;1.79;100.00;102912.31;10416969;28;20146;-65
2022/01/10 22:56:57;;;;;;;35.28;19.77;;;;;;;1.74;100.00;102917.44;10362752;28;20402;-65
2022/01/10 23:02:19;;;;;;;43.50;20.98;;;;;;;1.69;100.00;102921.69;10397895;28;20060;-64
2022/01/10 23:07:43;;;;;;;43.30;23.50;;;;;;;1.82;100.00;102933.75;10416796;28;20524;-64
2022/01/10 23:13:04;;;;;;;50.50;21.70;;;;;;;1.72;100.00;102932.00;10374700;28;20136;-64
2022/01/10 23:18:26;;;;;;;42.35;21.13;;;;;;;1.65;100.00;102940.50;10385013;28;20574;-64
2022/01/10 23:23:48;;;;;;;38.10;22.70;;;;;;;1.63;100.00;102942.19;10378492;28;20057;-65
2022/01/10 23:29:10;;;;;;;48.95;22.90;;;;;;;1.63;100.00;102946.50;10402023;28;20053;-65
2022/01/10 23:34:32;;;;;;;68.53;23.38;;;;;;;1.79;100.00;102938.88;10387907;28;20057;-64
2022/01/10 23:39:53;;;;;;;74.18;23.15;;;;;;;1.69;100.00;102942.25;10380615;28;20548;-64
2022/01/10 23:45:15;;;;;;;96.20;23.90;;;;;;;1.71;100.00;102940.56;10414546;28;20053;-65
2022/01/10 23:50:44;;;;;;;96.45;23.27;;;;;;;1.35;100.00;102954.88;10413885;28;20140;-65
2022/01/10 23:56:06;;;;;;;134.65;23.58;;;;;;;1.27;100.00;102952.25;10413696;28;20096;-65
